KLM565 LZIB-EPWA
Flight info
| Callsign | KLM565 |
|---|---|
| Flight time | N/A |
| Altitude | 29000 |
| Route | NIT M985 NIDOK DCT MEBAN DCT ORTEB DCT KONZI DCT LOGDA |
| Aircraft | B738/M-SDE2E3FGHIRWXY/LB1 |
Departure
| Time | 2026-04-29 15:37 |
|---|---|
| Airport | M. R. Štefánik Airport (LZIB) |
Arrival
| Time | N/A |
|---|---|
| Airport | Warsaw Chopin Airport (EPWA) |
| Time | Latitude | Longitude | Altitude | Speed | Heading |
|---|---|---|---|---|---|
| 2026-04-29 15:12 | 48.16801 | 17.19935 | 444 ft | 0 kts | 314° |
| 2026-04-29 15:31 | 48.16794 | 17.19946 | 444 ft | 0 kts | 314° |
| 2026-04-29 15:31 | 48.16776 | 17.19974 | 444 ft | 5 kts | 313° |
| 2026-04-29 15:31 | 48.16774 | 17.19979 | 444 ft | 0 kts | 313° |
| 2026-04-29 15:32 | 48.16783 | 17.19971 | 444 ft | 0 kts | 347° |
| 2026-04-29 15:32 | 48.16802 | 17.19980 | 444 ft | 5 kts | 45° |
| 2026-04-29 15:32 | 48.16804 | 17.20013 | 444 ft | 0 kts | 123° |
| 2026-04-29 15:32 | 48.16802 | 17.20015 | 444 ft | 0 kts | 126° |
| 2026-04-29 15:34 | 48.16803 | 17.20048 | 444 ft | 10 kts | 57° |
| 2026-04-29 15:34 | 48.16837 | 17.20163 | 444 ft | 14 kts | 103° |
| 2026-04-29 15:34 | 48.16758 | 17.20301 | 444 ft | 18 kts | 137° |
| 2026-04-29 15:35 | 48.16670 | 17.20332 | 444 ft | 11 kts | 214° |
| 2026-04-29 15:35 | 48.16613 | 17.20261 | 444 ft | 13 kts | 220° |
| 2026-04-29 15:35 | 48.16520 | 17.20143 | 444 ft | 20 kts | 220° |
| 2026-04-29 15:35 | 48.16426 | 17.20024 | 444 ft | 16 kts | 220° |
| 2026-04-29 15:36 | 48.16317 | 17.19884 | 444 ft | 25 kts | 220° |
| 2026-04-29 15:36 | 48.16190 | 17.19819 | 444 ft | 17 kts | 151° |
| 2026-04-29 15:36 | 48.16115 | 17.19941 | 444 ft | 17 kts | 99° |
| 2026-04-29 15:36 | 48.16176 | 17.20092 | 444 ft | 19 kts | 44° |
| 2026-04-29 15:37 | 48.16334 | 17.20317 | 444 ft | 59 kts | 43° |
| 2026-04-29 15:37 | 48.16838 | 17.21049 | 447 ft | 139 kts | 41° |
| 2026-04-29 15:37 | 48.17632 | 17.22203 | 1045 ft | 164 kts | 41° |
| 2026-04-29 15:37 | 48.18401 | 17.23410 | 2178 ft | 162 kts | 44° |
| 2026-04-29 15:38 | 48.19220 | 17.24774 | 2688 ft | 192 kts | 46° |
| 2026-04-29 15:38 | 48.20258 | 17.26282 | 3057 ft | 225 kts | 41° |
| 2026-04-29 15:38 | 48.21464 | 17.27984 | 3753 ft | 244 kts | 49° |
| 2026-04-29 15:38 | 48.22303 | 17.30251 | 4675 ft | 254 kts | 69° |
| 2026-04-29 15:39 | 48.22709 | 17.32831 | 5704 ft | 259 kts | 78° |
| 2026-04-29 15:39 | 48.23005 | 17.35580 | 6680 ft | 267 kts | 79° |
| 2026-04-29 15:39 | 48.23239 | 17.38381 | 7768 ft | 273 kts | 81° |
| 2026-04-29 15:39 | 48.23483 | 17.41200 | 8750 ft | 279 kts | 78° |
| 2026-04-29 15:40 | 48.23752 | 17.44137 | 9635 ft | 286 kts | 79° |
| 2026-04-29 15:40 | 48.24022 | 17.47177 | 10511 ft | 294 kts | 79° |
| 2026-04-29 15:40 | 48.24293 | 17.50241 | 11271 ft | 305 kts | 79° |
| 2026-04-29 15:40 | 48.24577 | 17.53468 | 11765 ft | 325 kts | 79° |
| 2026-04-29 15:41 | 48.24884 | 17.56942 | 12215 ft | 344 kts | 79° |
| 2026-04-29 15:41 | 48.25233 | 17.60554 | 12887 ft | 354 kts | 78° |
| 2026-04-29 15:41 | 48.25577 | 17.64230 | 13756 ft | 358 kts | 78° |
| 2026-04-29 15:41 | 48.25917 | 17.67947 | 14617 ft | 362 kts | 78° |
| 2026-04-29 15:42 | 48.26259 | 17.71776 | 15247 ft | 374 kts | 79° |
| 2026-04-29 15:42 | 48.26601 | 17.75656 | 15968 ft | 379 kts | 78° |
| 2026-04-29 15:42 | 48.26936 | 17.79591 | 16741 ft | 383 kts | 78° |
| 2026-04-29 15:42 | 48.27281 | 17.83583 | 17447 ft | 389 kts | 78° |
| 2026-04-29 15:43 | 48.27513 | 17.86339 | 17835 ft | 395 kts | 78° |
| 2026-04-29 15:43 | 48.27978 | 17.91830 | 18786 ft | 401 kts | 77° |
| 2026-04-29 15:43 | 48.28331 | 17.96025 | 19379 ft | 409 kts | 78° |
| 2026-04-29 15:43 | 48.28771 | 18.00233 | 20062 ft | 407 kts | 70° |
| 2026-04-29 15:44 | 48.29802 | 18.04124 | 20742 ft | 399 kts | 54° |
| 2026-04-29 15:44 | 48.31450 | 18.07488 | 21435 ft | 391 kts | 41° |
| 2026-04-29 15:44 | 48.33163 | 18.10108 | 22033 ft | 390 kts | 37° |
| 2026-04-29 15:44 | 48.34996 | 18.12674 | 22631 ft | 391 kts | 35° |
| 2026-04-29 15:45 | 48.36789 | 18.15061 | 23187 ft | 393 kts | 34° |
| 2026-04-29 15:45 | 48.37871 | 18.16487 | 23504 ft | 394 kts | 34° |
| 2026-04-29 15:45 | 48.39949 | 18.19224 | 24091 ft | 397 kts | 34° |
| 2026-04-29 15:45 | 48.42048 | 18.21984 | 24443 ft | 407 kts | 33° |
| 2026-04-29 15:46 | 48.43159 | 18.23448 | 24544 ft | 413 kts | 33° |
| 2026-04-29 15:46 | 48.45353 | 18.26313 | 24938 ft | 419 kts | 33° |
| 2026-04-29 15:46 | 48.47443 | 18.29023 | 25441 ft | 422 kts | 33° |
| 2026-04-29 15:46 | 48.49674 | 18.31932 | 25985 ft | 424 kts | 33° |
| 2026-04-29 15:47 | 48.51889 | 18.34838 | 26460 ft | 428 kts | 33° |
| 2026-04-29 15:47 | 48.54131 | 18.37790 | 27003 ft | 428 kts | 33° |
| 2026-04-29 15:47 | 48.56385 | 18.40766 | 27722 ft | 424 kts | 33° |
| 2026-04-29 15:47 | 48.57676 | 18.42471 | 28110 ft | 422 kts | 33° |
| 2026-04-29 15:48 | 48.59716 | 18.45173 | 28645 ft | 421 kts | 33° |
| 2026-04-29 15:48 | 48.61944 | 18.48128 | 29077 ft | 422 kts | 33° |
| 2026-04-29 15:48 | 48.64032 | 18.50899 | 29226 ft | 425 kts | 33° |
| 2026-04-29 15:49 | 48.66613 | 18.54323 | 29246 ft | 424 kts | 32° |
| 2026-04-29 15:49 | 48.68895 | 18.57354 | 29247 ft | 422 kts | 32° |
| 2026-04-29 15:50 | 48.73278 | 18.63193 | 29255 ft | 419 kts | 33° |
| 2026-04-29 15:50 | 48.77552 | 18.68934 | 29261 ft | 419 kts | 33° |
| 2026-04-29 15:51 | 48.81909 | 18.74811 | 29256 ft | 419 kts | 33° |
| 2026-04-29 15:51 | 48.86273 | 18.80706 | 29244 ft | 418 kts | 33° |
| 2026-04-29 15:52 | 48.90601 | 18.86698 | 29256 ft | 422 kts | 34° |
| 2026-04-29 15:52 | 48.94178 | 18.91720 | 29268 ft | 422 kts | 34° |
| 2026-04-29 15:53 | 48.94429 | 18.92073 | 29269 ft | 422 kts | 34° |